sensor_id;sensor_type;location;lat;lon;timestamp;pressure;altitude;pressure_sealevel;temperature;humidity
53546;BME280;39432;51.902;10.844;2023-05-25T00:02:20;100413.34;;;12.37;100.00
53546;BME280;39432;51.902;10.844;2023-05-25T00:04:50;100403.25;;;11.80;100.00
53546;BME280;39432;51.902;10.844;2023-05-25T00:07:20;100403.78;;;11.77;100.00
53546;BME280;39432;51.902;10.844;2023-05-25T00:09:52;100407.97;;;11.97;100.00
53546;BME280;39432;51.902;10.844;2023-05-25T00:12:22;100408.34;;;12.17;100.00
53546;BME280;39432;51.902;10.844;2023-05-25T00:14:52;100403.84;;;12.11;100.00
53546;BME280;39432;51.902;10.844;2023-05-25T00:17:22;100404.03;;;12.04;100.00
53546;BME280;39432;51.902;10.844;2023-05-25T00:19:55;100407.16;;;12.13;100.00
53546;BME280;39432;51.902;10.844;2023-05-25T00:22:33;100398.72;;;12.31;100.00
53546;BME280;39432;51.902;10.844;2023-05-25T00:25:06;100399.72;;;12.25;100.00
53546;BME280;39432;51.902;10.844;2023-05-25T00:27:36;100399.72;;;12.25;100.00
53546;BME280;39432;51.902;10.844;2023-05-25T00:30:07;100405.69;;;12.22;100.00
53546;BME280;39432;51.902;10.844;2023-05-25T00:32:37;100409.91;;;12.13;100.00
53546;BME280;39432;51.902;10.844;2023-05-25T00:35:07;100411.81;;;11.96;100.00
53546;BME280;39432;51.902;10.844;2023-05-25T00:37:38;100417.81;;;11.93;100.00
53546;BME280;39432;51.902;10.844;2023-05-25T00:40:13;100419.81;;;12.14;100.00
53546;BME280;39432;51.902;10.844;2023-05-25T00:42:44;100409.47;;;11.88;100.00
53546;BME280;39432;51.902;10.844;2023-05-25T00:45:13;100419.94;;;11.91;100.00
53546;BME280;39432;51.902;10.844;2023-05-25T00:47:44;100422.34;;;11.75;100.00
53546;BME280;39432;51.902;10.844;2023-05-25T00:50:14;100413.97;;;11.65;100.00
53546;BME280;39432;51.902;10.844;2023-05-25T00:52:45;100419.69;;;11.64;100.00
53546;BME280;39432;51.902;10.844;2023-05-25T00:55:18;100421.75;;;11.85;100.00
53546;BME280;39432;51.902;10.844;2023-05-25T00:57:53;100422.66;;;11.62;100.00
53546;BME280;39432;51.902;10.844;2023-05-25T01:00:23;100417.66;;;11.59;100.00
53546;BME280;39432;51.902;10.844;2023-05-25T01:02:54;100420.94;;;11.84;100.00
53546;BME280;39432;51.902;10.844;2023-05-25T01:05:26;100421.47;;;11.98;100.00
53546;BME280;39432;51.902;10.844;2023-05-25T01:07:58;100418.84;;;11.63;100.00
53546;BME280;39432;51.902;10.844;2023-05-25T01:10:32;100420.34;;;11.42;100.00
53546;BME280;39432;51.902;10.844;2023-05-25T01:13:06;100433.94;;;11.49;100.00
53546;BME280;39432;51.902;10.844;2023-05-25T01:15:37;100434.06;;;11.82;100.00
53546;BME280;39432;51.902;10.844;2023-05-25T01:18:07;100443.47;;;11.75;100.00
53546;BME280;39432;51.902;10.844;2023-05-25T01:20:52;100438.97;;;11.69;100.00
53546;BME280;39432;51.902;10.844;2023-05-25T01:23:29;100436.28;;;11.57;100.00
53546;BME280;39432;51.902;10.844;2023-05-25T01:26:03;100429.22;;;11.61;100.00
53546;BME280;39432;51.902;10.844;2023-05-25T01:28:36;100438.91;;;11.52;100.00
53546;BME280;39432;51.902;10.844;2023-05-25T01:31:08;100429.59;;;11.53;100.00
53546;BME280;39432;51.902;10.844;2023-05-25T01:33:38;100431.56;;;11.41;100.00
53546;BME280;39432;51.902;10.844;2023-05-25T01:36:11;100431.22;;;11.25;100.00
53546;BME280;39432;51.902;10.844;2023-05-25T01:38:41;100434.19;;;11.35;100.00
53546;BME280;39432;51.902;10.844;2023-05-25T01:41:11;100448.97;;;11.34;100.00
53546;BME280;39432;51.902;10.844;2023-05-25T01:43:41;100451.44;;;11.36;100.00
53546;BME280;39432;51.902;10.844;2023-05-25T01:49:04;100433.00;;;11.72;100.00
53546;BME280;39432;51.902;10.844;2023-05-25T01:51:44;100433.44;;;11.80;100.00
53546;BME280;39432;51.902;10.844;2023-05-25T01:54:18;100421.78;;;12.02;100.00
53546;BME280;39432;51.902;10.844;2023-05-25T01:56:50;100418.22;;;12.18;100.00
53546;BME280;39432;51.902;10.844;2023-05-25T01:59:21;100418.31;;;12.23;100.00
53546;BME280;39432;51.902;10.844;2023-05-25T02:01:52;100432.09;;;11.95;100.00
53546;BME280;39432;51.902;10.844;2023-05-25T02:04:23;100421.50;;;12.49;100.00
53546;BME280;39432;51.902;10.844;2023-05-25T02:06:55;100415.94;;;12.44;100.00
53546;BME280;39432;51.902;10.844;2023-05-25T02:09:25;100411.03;;;11.83;100.00
53546;BME280;39432;51.902;10.844;2023-05-25T02:11:55;100416.41;;;12.40;100.00
53546;BME280;39432;51.902;10.844;2023-05-25T02:14:25;100419.28;;;11.83;100.00
53546;BME280;39432;51.902;10.844;2023-05-25T02:16:55;100418.69;;;12.44;100.00
53546;BME280;39432;51.902;10.844;2023-05-25T02:19:28;100425.97;;;12.04;100.00
53546;BME280;39432;51.902;10.844;2023-05-25T02:22:00;100429.28;;;12.06;100.00
53546;BME280;39432;51.902;10.844;2023-05-25T02:24:30;100441.31;;;11.89;100.00
53546;BME280;39432;51.902;10.844;2023-05-25T02:27:00;100437.84;;;12.10;100.00
53546;BME280;39432;51.902;10.844;2023-05-25T02:29:30;100435.13;;;12.10;100.00
53546;BME280;39432;51.902;10.844;2023-05-25T02:32:00;100429.34;;;11.95;100.00
53546;BME280;39432;51.902;10.844;2023-05-25T02:34:30;100429.81;;;12.20;100.00
53546;BME280;39432;51.902;10.844;2023-05-25T02:37:02;100434.06;;;12.45;100.00
53546;BME280;39432;51.902;10.844;2023-05-25T02:39:32;100421.88;;;11.78;100.00
53546;BME280;39432;51.902;10.844;2023-05-25T02:42:02;100435.03;;;11.76;100.00
53546;BME280;39432;51.902;10.844;2023-05-25T02:44:32;100430.06;;;11.61;100.00
53546;BME280;39432;51.902;10.844;2023-05-25T02:47:02;100434.50;;;11.51;100.00
53546;BME280;39432;51.902;10.844;2023-05-25T02:49:33;100442.09;;;11.60;100.00
53546;BME280;39432;51.902;10.844;2023-05-25T02:52:05;100441.66;;;11.52;100.00
53546;BME280;39432;51.902;10.844;2023-05-25T02:54:35;100449.41;;;11.55;100.00
53546;BME280;39432;51.902;10.844;2023-05-25T02:57:06;100442.06;;;11.20;100.00
53546;BME280;39432;51.902;10.844;2023-05-25T02:59:36;100458.97;;;11.41;100.00
53546;BME280;39432;51.902;10.844;2023-05-25T03:02:06;100457.84;;;11.53;100.00
53546;BME280;39432;51.902;10.844;2023-05-25T03:04:37;100457.63;;;11.55;100.00
53546;BME280;39432;51.902;10.844;2023-05-25T03:07:10;100456.53;;;11.56;100.00
53546;BME280;39432;51.902;10.844;2023-05-25T03:09:40;100453.97;;;11.38;100.00
53546;BME280;39432;51.902;10.844;2023-05-25T03:12:10;100463.00;;;11.50;100.00
53546;BME280;39432;51.902;10.844;2023-05-25T03:14:41;100461.44;;;11.54;100.00
53546;BME280;39432;51.902;10.844;2023-05-25T03:17:10;100460.06;;;11.68;100.00
53546;BME280;39432;51.902;10.844;2023-05-25T03:19:40;100465.84;;;11.55;100.00
53546;BME280;39432;51.902;10.844;2023-05-25T03:22:13;100469.13;;;11.69;100.00
53546;BME280;39432;51.902;10.844;2023-05-25T03:24:45;100467.41;;;11.79;100.00
53546;BME280;39432;51.902;10.844;2023-05-25T03:27:16;100473.81;;;11.56;100.00
53546;BME280;39432;51.902;10.844;2023-05-25T03:29:47;100473.59;;;11.86;100.00
53546;BME280;39432;51.902;10.844;2023-05-25T03:32:18;100473.66;;;11.63;100.00
53546;BME280;39432;51.902;10.844;2023-05-25T03:34:50;100472.19;;;11.44;100.00
53546;BME280;39432;51.902;10.844;2023-05-25T03:37:22;100464.66;;;11.51;100.00
53546;BME280;39432;51.902;10.844;2023-05-25T03:39:52;100486.34;;;11.41;100.00
53546;BME280;39432;51.902;10.844;2023-05-25T03:42:21;100494.91;;;11.56;100.00
53546;BME280;39432;51.902;10.844;2023-05-25T03:44:51;100498.22;;;11.58;100.00
53546;BME280;39432;51.902;10.844;2023-05-25T03:47:22;100490.88;;;11.47;100.00
53546;BME280;39432;51.902;10.844;2023-05-25T03:49:52;100483.72;;;11.46;100.00
53546;BME280;39432;51.902;10.844;2023-05-25T03:52:24;100495.13;;;11.66;100.00
53546;BME280;39432;51.902;10.844;2023-05-25T03:54:54;100497.25;;;11.64;100.00
53546;BME280;39432;51.902;10.844;2023-05-25T03:57:24;100496.97;;;11.49;100.00
53546;BME280;39432;51.902;10.844;2023-05-25T03:59:54;100490.56;;;11.83;100.00
53546;BME280;39432;51.902;10.844;2023-05-25T04:02:24;100499.22;;;11.92;100.00
53546;BME280;39432;51.902;10.844;2023-05-25T04:04:54;100489.13;;;11.69;100.00
53546;BME280;39432;51.902;10.844;2023-05-25T04:07:27;100485.91;;;11.84;100.00
53546;BME280;39432;51.902;10.844;2023-05-25T04:09:57;100478.25;;;11.98;100.00
53546;BME280;39432;51.902;10.844;2023-05-25T04:12:27;100477.88;;;11.54;100.00
53546;BME280;39432;51.902;10.844;2023-05-25T04:14:58;100480.25;;;11.50;100.00
53546;BME280;39432;51.902;10.844;2023-05-25T04:17:30;100484.63;;;11.63;100.00
53546;BME280;39432;51.902;10.844;2023-05-25T04:20:06;100481.88;;;11.11;100.00
53546;BME280;39432;51.902;10.844;2023-05-25T04:22:39;100502.44;;;11.49;100.00
53546;BME280;39432;51.902;10.844;2023-05-25T04:25:11;100507.63;;;11.10;100.00
53546;BME280;39432;51.902;10.844;2023-05-25T04:27:41;100505.66;;;11.46;100.00
53546;BME280;39432;51.902;10.844;2023-05-25T04:30:14;100518.19;;;11.94;100.00
53546;BME280;39432;51.902;10.844;2023-05-25T04:32:55;100503.25;;;12.01;100.00
53546;BME280;39432;51.902;10.844;2023-05-25T04:35:34;100511.09;;;12.55;100.00
53546;BME280;39432;51.902;10.844;2023-05-25T04:38:09;100505.47;;;12.16;100.00
53546;BME280;39432;51.902;10.844;2023-05-25T04:40:43;100503.34;;;12.52;100.00
53546;BME280;39432;51.902;10.844;2023-05-25T04:43:14;100491.16;;;13.15;100.00
53546;BME280;39432;51.902;10.844;2023-05-25T04:45:46;100482.94;;;13.15;100.00
53546;BME280;39432;51.902;10.844;2023-05-25T04:48:17;100475.22;;;12.61;100.00
53546;BME280;39432;51.902;10.844;2023-05-25T04:50:47;100485.38;;;12.61;100.00
53546;BME280;39432;51.902;10.844;2023-05-25T04:53:20;100479.06;;;12.44;100.00
53546;BME280;39432;51.902;10.844;2023-05-25T04:55:50;100492.91;;;11.92;100.00
53546;BME280;39432;51.902;10.844;2023-05-25T04:58:23;100491.59;;;11.94;100.00
53546;BME280;39432;51.902;10.844;2023-05-25T05:00:55;100494.88;;;12.36;100.00
53546;BME280;39432;51.902;10.844;2023-05-25T05:03:25;100500.09;;;11.93;100.00
53546;BME280;39432;51.902;10.844;2023-05-25T05:05:55;100503.19;;;11.84;100.00
53546;BME280;39432;51.902;10.844;2023-05-25T05:08:30;100504.19;;;12.07;100.00
53546;BME280;39432;51.902;10.844;2023-05-25T05:11:00;100500.75;;;12.00;100.00
53546;BME280;39432;51.902;10.844;2023-05-25T05:13:30;100506.03;;;12.18;100.00
53546;BME280;39432;51.902;10.844;2023-05-25T05:16:00;100514.53;;;11.76;100.00
53546;BME280;39432;51.902;10.844;2023-05-25T05:18:30;100513.09;;;11.74;100.00
53546;BME280;39432;51.902;10.844;2023-05-25T05:21:00;100513.91;;;11.34;100.00
53546;BME280;39432;51.902;10.844;2023-05-25T05:23:33;100523.97;;;11.57;100.00
53546;BME280;39432;51.902;10.844;2023-05-25T05:26:03;100528.16;;;11.48;100.00
53546;BME280;39432;51.902;10.844;2023-05-25T05:28:36;100533.41;;;11.49;100.00
53546;BME280;39432;51.902;10.844;2023-05-25T05:31:07;100535.44;;;11.54;100.00
53546;BME280;39432;51.902;10.844;2023-05-25T05:33:38;100533.81;;;12.22;100.00
53546;BME280;39432;51.902;10.844;2023-05-25T05:36:08;100531.66;;;11.95;100.00
53546;BME280;39432;51.902;10.844;2023-05-25T05:38:41;100531.13;;;12.10;100.00
53546;BME280;39432;51.902;10.844;2023-05-25T05:41:12;100531.28;;;12.03;100.00
53546;BME280;39432;51.902;10.844;2023-05-25T05:43:47;100533.88;;;11.81;100.00
53546;BME280;39432;51.902;10.844;2023-05-25T05:46:17;100529.69;;;12.07;100.00
53546;BME280;39432;51.902;10.844;2023-05-25T05:48:47;100529.06;;;12.17;100.00
53546;BME280;39432;51.902;10.844;2023-05-25T05:51:17;100529.66;;;12.81;100.00
53546;BME280;39432;51.902;10.844;2023-05-25T05:53:49;100523.75;;;12.89;100.00
53546;BME280;39432;51.902;10.844;2023-05-25T05:56:19;100530.25;;;11.93;100.00
53546;BME280;39432;51.902;10.844;2023-05-25T05:58:49;100531.16;;;13.23;100.00
53546;BME280;39432;51.902;10.844;2023-05-25T06:01:20;100524.75;;;14.27;100.00
53546;BME280;39432;51.902;10.844;2023-05-25T06:03:51;100518.41;;;14.48;100.00
53546;BME280;39432;51.902;10.844;2023-05-25T06:06:22;100507.81;;;14.62;100.00
53546;BME280;39432;51.902;10.844;2023-05-25T06:08:54;100501.25;;;15.10;100.00
53546;BME280;39432;51.902;10.844;2023-05-25T06:11:24;100499.28;;;15.00;100.00
53546;BME280;39432;51.902;10.844;2023-05-25T06:13:55;100499.41;;;15.63;100.00
53546;BME280;39432;51.902;10.844;2023-05-25T06:16:25;100498.88;;;15.66;100.00
53546;BME280;39432;51.902;10.844;2023-05-25T06:18:56;100500.50;;;15.20;100.00
53546;BME280;39432;51.902;10.844;2023-05-25T06:21:26;100495.31;;;15.81;100.00
53546;BME280;39432;51.902;10.844;2023-05-25T06:23:58;100494.13;;;15.14;100.00
53546;BME280;39432;51.902;10.844;2023-05-25T06:26:28;100497.78;;;14.88;100.00
53546;BME280;39432;51.902;10.844;2023-05-25T06:28:58;100494.84;;;14.99;100.00
53546;BME280;39432;51.902;10.844;2023-05-25T06:31:27;100493.81;;;16.21;100.00
53546;BME280;39432;51.902;10.844;2023-05-25T06:33:57;100500.47;;;16.55;100.00
53546;BME280;39432;51.902;10.844;2023-05-25T06:36:27;100491.06;;;17.07;100.00
53546;BME280;39432;51.902;10.844;2023-05-25T06:39:01;100484.44;;;16.57;100.00
53546;BME280;39432;51.902;10.844;2023-05-25T06:41:31;100492.44;;;17.25;100.00
53546;BME280;39432;51.902;10.844;2023-05-25T06:44:01;100492.38;;;17.35;100.00
53546;BME280;39432;51.902;10.844;2023-05-25T06:46:37;100487.22;;;16.98;100.00
53546;BME280;39432;51.902;10.844;2023-05-25T06:49:08;100499.25;;;16.00;100.00
53546;BME280;39432;51.902;10.844;2023-05-25T06:51:38;100493.81;;;16.46;100.00
53546;BME280;39432;51.902;10.844;2023-05-25T06:54:10;100497.91;;;16.08;100.00
53546;BME280;39432;51.902;10.844;2023-05-25T06:56:41;100492.72;;;16.32;100.00
53546;BME280;39432;51.902;10.844;2023-05-25T06:59:11;100493.28;;;16.65;100.00
53546;BME280;39432;51.902;10.844;2023-05-25T07:01:41;100492.03;;;15.32;100.00
53546;BME280;39432;51.902;10.844;2023-05-25T07:04:10;100493.78;;;16.31;100.00
53546;BME280;39432;51.902;10.844;2023-05-25T07:06:40;100494.19;;;15.67;100.00
53546;BME280;39432;51.902;10.844;2023-05-25T07:09:12;100491.66;;;15.65;100.00
53546;BME280;39432;51.902;10.844;2023-05-25T07:11:43;100490.53;;;15.14;100.00
53546;BME280;39432;51.902;10.844;2023-05-25T07:14:12;100492.56;;;15.81;100.00
53546;BME280;39432;51.902;10.844;2023-05-25T07:16:42;100494.13;;;16.96;100.00
53546;BME280;39432;51.902;10.844;2023-05-25T07:19:12;100491.94;;;16.77;100.00
53546;BME280;39432;51.902;10.844;2023-05-25T07:21:42;100497.72;;;16.91;100.00
53546;BME280;39432;51.902;10.844;2023-05-25T07:24:14;100497.75;;;16.76;100.00
53546;BME280;39432;51.902;10.844;2023-05-25T07:26:44;100500.47;;;17.17;100.00
53546;BME280;39432;51.902;10.844;2023-05-25T07:29:15;100492.69;;;17.29;100.00
53546;BME280;39432;51.902;10.844;2023-05-25T07:31:45;100503.75;;;16.27;100.00
53546;BME280;39432;51.902;10.844;2023-05-25T07:34:15;100493.00;;;16.61;100.00
53546;BME280;39432;51.902;10.844;2023-05-25T07:36:45;100491.34;;;17.06;100.00
53546;BME280;39432;51.902;10.844;2023-05-25T07:39:17;100489.41;;;17.17;100.00
53546;BME280;39432;51.902;10.844;2023-05-25T07:41:47;100491.31;;;17.31;100.00
53546;BME280;39432;51.902;10.844;2023-05-25T07:44:16;100489.28;;;17.57;100.00
53546;BME280;39432;51.902;10.844;2023-05-25T07:46:46;100484.91;;;17.36;100.00
53546;BME280;39432;51.902;10.844;2023-05-25T07:49:16;100493.84;;;17.98;100.00
53546;BME280;39432;51.902;10.844;2023-05-25T07:51:46;100484.06;;;18.15;100.00
53546;BME280;39432;51.902;10.844;2023-05-25T07:54:19;100488.56;;;17.96;100.00
53546;BME280;39432;51.902;10.844;2023-05-25T07:56:48;100489.69;;;17.95;100.00
53546;BME280;39432;51.902;10.844;2023-05-25T07:59:18;100486.13;;;16.99;100.00
53546;BME280;39432;51.902;10.844;2023-05-25T08:01:48;100487.47;;;16.41;100.00
53546;BME280;39432;51.902;10.844;2023-05-25T08:04:18;100498.53;;;16.51;100.00
53546;BME280;39432;51.902;10.844;2023-05-25T08:06:48;100492.44;;;16.44;100.00
53546;BME280;39432;51.902;10.844;2023-05-25T08:09:20;100500.63;;;15.98;100.00
53546;BME280;39432;51.902;10.844;2023-05-25T08:11:50;100501.84;;;16.68;100.00
53546;BME280;39432;51.902;10.844;2023-05-25T08:14:39;100506.03;;;16.76;100.00
53546;BME280;39432;51.902;10.844;2023-05-25T08:17:09;100497.69;;;16.45;100.00
53546;BME280;39432;51.902;10.844;2023-05-25T08:19:38;100509.84;;;16.70;100.00
53546;BME280;39432;51.902;10.844;2023-05-25T08:22:08;100498.22;;;17.29;100.00
53546;BME280;39432;51.902;10.844;2023-05-25T08:24:40;100506.50;;;17.39;100.00
53546;BME280;39432;51.902;10.844;2023-05-25T08:27:10;100500.47;;;16.96;100.00
53546;BME280;39432;51.902;10.844;2023-05-25T08:29:40;100512.66;;;16.80;100.00
53546;BME280;39432;51.902;10.844;2023-05-25T08:32:10;100522.84;;;16.69;100.00
53546;BME280;39432;51.902;10.844;2023-05-25T08:34:40;100511.50;;;17.37;100.00
53546;BME280;39432;51.902;10.844;2023-05-25T08:37:09;100504.53;;;17.50;100.00
53546;BME280;39432;51.902;10.844;2023-05-25T08:39:42;100498.84;;;16.95;100.00
53546;BME280;39432;51.902;10.844;2023-05-25T08:42:12;100502.53;;;17.76;100.00
53546;BME280;39432;51.902;10.844;2023-05-25T08:44:41;100502.56;;;17.55;100.00
53546;BME280;39432;51.902;10.844;2023-05-25T08:47:12;100506.91;;;17.92;100.00
53546;BME280;39432;51.902;10.844;2023-05-25T08:49:43;100504.25;;;17.46;100.00
53546;BME280;39432;51.902;10.844;2023-05-25T08:52:14;100504.31;;;17.31;100.00
53546;BME280;39432;51.902;10.844;2023-05-25T08:54:49;100504.34;;;16.95;100.00
53546;BME280;39432;51.902;10.844;2023-05-25T08:57:24;100520.91;;;16.65;100.00
53546;BME280;39432;51.902;10.844;2023-05-25T08:59:59;100526.63;;;16.12;100.00
53546;BME280;39432;51.902;10.844;2023-05-25T09:02:35;100523.50;;;15.83;100.00
53546;BME280;39432;51.902;10.844;2023-05-25T09:05:08;100534.91;;;16.07;100.00
53546;BME280;39432;51.902;10.844;2023-05-25T09:07:38;100531.56;;;16.00;100.00
53546;BME280;39432;51.902;10.844;2023-05-25T09:10:13;100525.72;;;15.91;100.00
53546;BME280;39432;51.902;10.844;2023-05-25T09:12:43;100522.00;;;16.69;100.00
53546;BME280;39432;51.902;10.844;2023-05-25T09:15:14;100524.13;;;16.05;100.00
53546;BME280;39432;51.902;10.844;2023-05-25T09:17:44;100524.72;;;15.55;100.00
53546;BME280;39432;51.902;10.844;2023-05-25T09:20:15;100526.63;;;15.54;100.00
53546;BME280;39432;51.902;10.844;2023-05-25T09:22:46;100530.13;;;15.92;100.00
53546;BME280;39432;51.902;10.844;2023-05-25T09:25:18;100532.25;;;15.70;100.00
53546;BME280;39432;51.902;10.844;2023-05-25T09:27:48;100530.41;;;15.86;100.00
53546;BME280;39432;51.902;10.844;2023-05-25T09:30:18;100537.81;;;15.80;100.00
53546;BME280;39432;51.902;10.844;2023-05-25T09:32:48;100537.97;;;16.31;100.00
53546;BME280;39432;51.902;10.844;2023-05-25T09:35:19;100543.25;;;16.27;100.00
53546;BME280;39432;51.902;10.844;2023-05-25T09:37:52;100531.81;;;15.93;100.00
53546;BME280;39432;51.902;10.844;2023-05-25T09:40:25;100540.22;;;16.39;100.00
53546;BME280;39432;51.902;10.844;2023-05-25T09:42:56;100536.91;;;16.27;100.00
53546;BME280;39432;51.902;10.844;2023-05-25T09:45:26;100535.38;;;15.41;100.00
53546;BME280;39432;51.902;10.844;2023-05-25T09:47:56;100533.97;;;15.81;100.00
53546;BME280;39432;51.902;10.844;2023-05-25T09:50:27;100532.53;;;16.62;100.00
53546;BME280;39432;51.902;10.844;2023-05-25T09:52:59;100531.53;;;15.90;100.00
53546;BME280;39432;51.902;10.844;2023-05-25T09:55:32;100537.00;;;16.83;100.00
53546;BME280;39432;51.902;10.844;2023-05-25T09:58:18;100536.41;;;16.81;100.00
53546;BME280;39432;51.902;10.844;2023-05-25T10:00:48;100540.97;;;16.09;100.00
53546;BME280;39432;51.902;10.844;2023-05-25T10:03:18;100531.41;;;16.57;100.00
53546;BME280;39432;51.902;10.844;2023-05-25T10:05:48;100534.44;;;16.51;100.00
53546;BME280;39432;51.902;10.844;2023-05-25T10:08:19;100538.00;;;16.41;100.00
53546;BME280;39432;51.902;10.844;2023-05-25T10:10:56;100537.53;;;16.75;100.00
53546;BME280;39432;51.902;10.844;2023-05-25T10:13:26;100546.94;;;17.04;100.00
53546;BME280;39432;51.902;10.844;2023-05-25T10:15:57;100540.22;;;16.39;100.00
53546;BME280;39432;51.902;10.844;2023-05-25T10:18:28;100542.16;;;17.51;100.00
53546;BME280;39432;51.902;10.844;2023-05-25T10:21:02;100549.41;;;16.65;100.00
53546;BME280;39432;51.902;10.844;2023-05-25T10:23:36;100544.72;;;17.27;100.00
53546;BME280;39432;51.902;10.844;2023-05-25T10:26:12;100538.28;;;17.47;100.00
53546;BME280;39432;51.902;10.844;2023-05-25T10:28:45;100549.66;;;17.45;100.00
53546;BME280;39432;51.902;10.844;2023-05-25T10:31:17;100539.72;;;17.29;100.00
53546;BME280;39432;51.902;10.844;2023-05-25T10:33:47;100536.69;;;16.74;100.00
53546;BME280;39432;51.902;10.844;2023-05-25T10:36:19;100535.78;;;17.60;100.00
53546;BME280;39432;51.902;10.844;2023-05-25T10:38:50;100535.50;;;17.57;100.00
53546;BME280;39432;51.902;10.844;2023-05-25T10:41:22;100534.34;;;17.78;99.28
53546;BME280;39432;51.902;10.844;2023-05-25T10:43:52;100541.53;;;17.79;96.57
53546;BME280;39432;51.902;10.844;2023-05-25T10:46:22;100535.75;;;17.76;99.54
53546;BME280;39432;51.902;10.844;2023-05-25T10:48:52;100532.50;;;17.43;97.42
53546;BME280;39432;51.902;10.844;2023-05-25T10:51:37;100530.91;;;18.51;100.00
53546;BME280;39432;51.902;10.844;2023-05-25T10:54:07;100527.47;;;17.76;92.32
53546;BME280;39432;51.902;10.844;2023-05-25T10:57:08;100522.38;;;17.98;100.00
53546;BME280;39432;51.902;10.844;2023-05-25T10:59:41;100522.28;;;18.19;99.09
53546;BME280;39432;51.902;10.844;2023-05-25T11:02:13;100522.28;;;18.19;97.17
53546;BME280;39432;51.902;10.844;2023-05-25T11:04:46;100528.94;;;18.12;96.99
53546;BME280;39432;51.902;10.844;2023-05-25T11:07:16;100532.41;;;17.84;96.43
53546;BME280;39432;51.902;10.844;2023-05-25T11:09:56;100520.50;;;18.33;94.22
53546;BME280;39432;51.902;10.844;2023-05-25T11:12:30;100519.59;;;18.03;92.71
53546;BME280;39432;51.902;10.844;2023-05-25T11:15:08;100522.16;;;18.34;95.15
53546;BME280;39432;51.902;10.844;2023-05-25T11:17:45;100517.91;;;18.91;90.98
53546;BME280;39432;51.902;10.844;2023-05-25T11:20:20;100517.53;;;18.63;86.94
53546;BME280;39432;51.902;10.844;2023-05-25T11:22:51;100520.16;;;18.84;84.06
53546;BME280;39432;51.902;10.844;2023-05-25T11:25:38;100525.25;;;18.72;83.60
53546;BME280;39432;51.902;10.844;2023-05-25T11:28:10;100519.25;;;18.54;82.66
53546;BME280;39432;51.902;10.844;2023-05-25T11:30:40;100520.00;;;19.57;80.67
53546;BME280;39432;51.902;10.844;2023-05-25T11:33:10;100511.13;;;19.31;76.86
53546;BME280;39432;51.902;10.844;2023-05-25T11:35:43;100516.66;;;19.60;76.13
53546;BME280;39432;51.902;10.844;2023-05-25T11:38:14;100509.59;;;19.44;82.35
53546;BME280;39432;51.902;10.844;2023-05-25T11:40:44;100521.47;;;18.97;86.58
53546;BME280;39432;51.902;10.844;2023-05-25T11:43:18;100516.44;;;18.59;92.17
53546;BME280;39432;51.902;10.844;2023-05-25T11:45:54;100519.97;;;18.31;89.81
53546;BME280;39432;51.902;10.844;2023-05-25T11:48:26;100518.94;;;18.61;91.72
53546;BME280;39432;51.902;10.844;2023-05-25T11:51:13;100520.63;;;16.56;100.00
53546;BME280;39432;51.902;10.844;2023-05-25T11:53:43;100520.31;;;17.44;100.00
53546;BME280;39432;51.902;10.844;2023-05-25T11:56:14;100536.84;;;16.17;100.00
53546;BME280;39432;51.902;10.844;2023-05-25T11:59:06;100533.66;;;16.91;100.00
53546;BME280;39432;51.902;10.844;2023-05-25T12:01:36;100535.75;;;17.65;100.00
53546;BME280;39432;51.902;10.844;2023-05-25T12:04:10;100528.41;;;18.10;100.00
53546;BME280;39432;51.902;10.844;2023-05-25T12:06:40;100527.25;;;18.16;100.00
53546;BME280;39432;51.902;10.844;2023-05-25T12:09:10;100525.91;;;18.58;97.59
53546;BME280;39432;51.902;10.844;2023-05-25T12:11:40;100528.09;;;18.56;94.03
53546;BME280;39432;51.902;10.844;2023-05-25T12:14:14;100525.25;;;17.73;97.29
53546;BME280;39432;51.902;10.844;2023-05-25T12:16:44;100521.88;;;17.91;98.61
53546;BME280;39432;51.902;10.844;2023-05-25T12:19:14;100524.34;;;17.93;96.82
53546;BME280;39432;51.902;10.844;2023-05-25T12:21:44;100525.72;;;17.90;99.85
53546;BME280;39432;51.902;10.844;2023-05-25T12:24:17;100519.13;;;17.86;98.47
53546;BME280;39432;51.902;10.844;2023-05-25T12:26:47;100516.28;;;17.96;99.59
53546;BME280;39432;51.902;10.844;2023-05-25T12:29:26;100519.94;;;18.36;97.28
53546;BME280;39432;51.902;10.844;2023-05-25T12:32:00;100520.41;;;18.04;97.09
53546;BME280;39432;51.902;10.844;2023-05-25T12:34:32;100513.03;;;18.33;94.08
53546;BME280;39432;51.902;10.844;2023-05-25T12:37:02;100515.44;;;18.84;93.26
53546;BME280;39432;51.902;10.844;2023-05-25T12:39:33;100514.44;;;18.31;95.10
53546;BME280;39432;51.902;10.844;2023-05-25T12:42:11;100514.22;;;18.17;91.30
53546;BME280;39432;51.902;10.844;2023-05-25T12:44:45;100515.22;;;17.87;95.79
53546;BME280;39432;51.902;10.844;2023-05-25T12:47:16;100511.34;;;18.77;90.72
53546;BME280;39432;51.902;10.844;2023-05-25T12:49:48;100508.97;;;18.21;89.09
53546;BME280;39432;51.902;10.844;2023-05-25T12:52:31;100506.44;;;18.63;86.89
53546;BME280;39432;51.902;10.844;2023-05-25T12:55:18;100513.59;;;18.75;88.72
53546;BME280;39432;51.902;10.844;2023-05-25T12:57:48;100503.38;;;17.76;93.07